createdAt,value
2019-02-24T00:03:36.570Z,8.60
2019-02-24T00:07:42.267Z,8.50
2019-02-24T00:11:47.969Z,8.50
2019-02-24T00:15:53.669Z,8.60
2019-02-24T00:19:59.365Z,8.70
2019-02-24T00:24:05.082Z,8.60
2019-02-24T00:28:12.420Z,8.80
2019-02-24T00:32:18.122Z,8.70
2019-02-24T00:36:23.825Z,8.60
2019-02-24T00:40:29.506Z,8.50
2019-02-24T00:44:35.218Z,8.60
2019-02-24T00:48:40.917Z,8.70
2019-02-24T00:52:47.062Z,8.80
2019-02-24T00:56:53.846Z,8.80
2019-02-24T01:00:59.527Z,8.70
2019-02-24T01:05:08.321Z,8.60
2019-02-24T01:09:13.992Z,8.60
2019-02-24T01:13:19.770Z,8.40
2019-02-24T01:17:25.475Z,8.40
2019-02-24T01:21:31.170Z,8.40
2019-02-24T01:25:36.853Z,8.30
2019-02-24T01:29:44.233Z,8.20
2019-02-24T01:33:49.918Z,8.20
2019-02-24T01:37:55.734Z,8.30
2019-02-24T01:42:01.517Z,8.30
2019-02-24T01:46:07.237Z,8.40
2019-02-24T01:50:12.925Z,8.40
2019-02-24T01:54:20.237Z,8.50
2019-02-24T01:58:34.654Z,8.20
2019-02-24T02:02:33.310Z,8.00
2019-02-24T02:06:39.042Z,7.90
2019-02-24T02:10:44.723Z,7.90
2019-02-24T02:14:50.389Z,7.80
2019-02-24T02:18:56.155Z,8.00
2019-02-24T02:23:01.834Z,8.00
2019-02-24T02:27:07.530Z,7.90
2019-02-24T02:31:13.272Z,7.90
2019-02-24T02:35:19.011Z,8.00
2019-02-24T02:39:24.688Z,8.10
2019-02-24T02:43:30.359Z,8.30
2019-02-24T02:47:36.055Z,8.00
2019-02-24T02:51:41.789Z,7.90
2019-02-24T02:55:47.470Z,7.90
2019-02-24T02:59:53.159Z,7.90
2019-02-24T03:03:58.844Z,7.60
2019-02-24T03:08:08.663Z,7.80
2019-02-24T03:12:14.344Z,7.70
2019-02-24T03:16:23.101Z,7.70
2019-02-24T03:20:28.922Z,7.40
2019-02-24T03:24:34.612Z,7.30
2019-02-24T03:28:40.300Z,7.50
2019-02-24T03:32:46.163Z,7.50
2019-02-24T03:36:51.920Z,7.40
2019-02-24T03:40:57.678Z,7.20
2019-02-24T03:45:03.381Z,7.10
2019-02-24T03:49:09.027Z,7.40
2019-02-24T03:53:16.959Z,7.30
2019-02-24T03:57:22.639Z,7.10
2019-02-24T04:01:28.406Z,7.10
2019-02-24T04:05:34.107Z,7.20
2019-02-24T04:09:39.788Z,7.50
2019-02-24T04:13:45.475Z,7.60
2019-02-24T04:17:51.143Z,7.60
2019-02-24T04:21:56.840Z,7.30
2019-02-24T04:26:02.527Z,7.40
2019-02-24T04:30:09.131Z,7.50
2019-02-24T04:34:14.823Z,7.40
2019-02-24T04:38:20.499Z,7.50
2019-02-24T04:42:26.224Z,7.30
2019-02-24T04:46:31.930Z,7.50
2019-02-24T04:50:37.617Z,7.70
2019-02-24T04:55:16.713Z,7.70
2019-02-24T04:59:22.641Z,7.90
2019-02-24T05:03:28.332Z,7.80
2019-02-24T05:07:34.037Z,7.30
2019-02-24T05:11:39.736Z,7.30
2019-02-24T05:15:45.487Z,7.20
2019-02-24T05:19:51.172Z,7.20
2019-02-24T05:23:57.035Z,7.00
2019-02-24T05:28:02.724Z,7.20
2019-02-24T05:32:08.563Z,7.20
2019-02-24T05:36:14.267Z,7.30
2019-02-24T05:40:19.967Z,7.40
2019-02-24T05:44:25.660Z,7.50
2019-02-24T05:48:33.598Z,7.40
2019-02-24T05:52:38.751Z,7.00
2019-02-24T05:56:44.428Z,6.70
2019-02-24T06:00:50.141Z,6.50
2019-02-24T06:04:55.834Z,6.40
2019-02-24T06:09:01.560Z,6.40
2019-02-24T06:13:08.855Z,6.30
2019-02-24T06:17:14.589Z,6.70
2019-02-24T06:21:20.302Z,7.20
2019-02-24T06:25:25.999Z,7.20
2019-02-24T06:29:31.700Z,7.30
2019-02-24T06:33:37.417Z,7.20
2019-02-24T06:37:43.098Z,7.40
2019-02-24T06:41:48.801Z,7.50
2019-02-24T06:45:54.653Z,7.60
2019-02-24T06:50:01.961Z,7.80
2019-02-24T06:54:07.639Z,7.70
2019-02-24T06:58:13.339Z,7.60
2019-02-24T07:02:19.032Z,7.70
2019-02-24T07:06:24.721Z,7.80
2019-02-24T07:10:30.463Z,7.80
2019-02-24T07:14:36.130Z,7.80
2019-02-24T07:18:41.823Z,7.80
2019-02-24T07:22:47.575Z,7.80
2019-02-24T07:26:53.362Z,7.70
2019-02-24T07:36:28.727Z,9.10
2019-02-24T07:40:35.494Z,9.00
2019-02-24T07:44:41.188Z,8.50
2019-02-24T07:48:46.875Z,8.20
2019-02-24T07:52:52.593Z,8.00
2019-02-24T07:56:58.290Z,8.00
2019-02-24T08:01:03.974Z,8.00
2019-02-24T08:05:09.985Z,8.10
2019-02-24T08:09:15.674Z,8.10
2019-02-24T08:13:21.371Z,8.20
2019-02-24T08:17:27.033Z,8.30
2019-02-24T08:21:32.730Z,8.40
2019-02-24T08:25:38.514Z,8.50
2019-02-24T08:29:44.209Z,8.70
2019-02-24T08:33:49.898Z,8.90
2019-02-24T08:37:55.581Z,9.30
2019-02-24T08:42:01.374Z,10.40
2019-02-24T08:46:07.093Z,12.10
2019-02-24T08:50:13.242Z,12.20
2019-02-24T08:54:18.937Z,11.30
2019-02-24T08:58:24.625Z,11.50
2019-02-24T09:02:30.365Z,12.30
2019-02-24T09:06:36.080Z,12.30
2019-02-24T09:10:41.787Z,13.90
2019-02-24T09:14:47.487Z,15.30
2019-02-24T09:18:53.216Z,16.20
2019-02-24T09:22:58.989Z,16.40
2019-02-24T09:27:04.715Z,16.30
2019-02-24T09:31:13.469Z,15.80
2019-02-24T09:35:20.447Z,15.80
2019-02-24T09:39:26.150Z,15.90
2019-02-24T09:43:31.863Z,17.80
2019-02-24T09:47:46.416Z,17.10
2019-02-24T09:51:45.030Z,15.50
2019-02-24T09:55:50.715Z,14.50
2019-02-24T09:59:56.487Z,14.10
2019-02-24T10:04:02.205Z,15.20
2019-02-24T10:08:19.684Z,17.20
2019-02-24T10:12:25.419Z,15.20
2019-02-24T10:16:31.177Z,14.70
2019-02-24T10:20:36.875Z,14.60
2019-02-24T10:24:42.584Z,15.00
2019-02-24T10:28:48.288Z,16.00
2019-02-24T10:32:54.063Z,18.00
2019-02-24T10:37:00.725Z,17.70
2019-02-24T10:41:06.429Z,15.60
2019-02-24T10:45:17.879Z,15.40
2019-02-24T10:49:23.641Z,14.10
2019-02-24T10:53:29.340Z,14.70
2019-02-24T10:57:35.050Z,16.00
2019-02-24T11:01:40.824Z,17.10
2019-02-24T11:05:46.523Z,16.40
2019-02-24T11:09:52.298Z,15.90
2019-02-24T11:13:58.018Z,17.00
2019-02-24T11:18:03.745Z,18.20
2019-02-24T11:22:09.683Z,22.60
2019-02-24T11:26:15.403Z,28.10
2019-02-24T11:30:21.153Z,29.40
2019-02-24T11:34:26.860Z,32.70
2019-02-24T11:38:32.542Z,34.30
2019-02-24T11:42:38.338Z,35.30
2019-02-24T11:46:44.036Z,34.90
2019-02-24T11:50:49.784Z,34.30
2019-02-24T11:54:55.498Z,31.30
2019-02-24T11:59:01.226Z,30.40
2019-02-24T12:03:06.921Z,30.40
2019-02-24T12:07:12.642Z,28.10
2019-02-24T12:11:18.335Z,28.60
2019-02-24T12:15:24.074Z,29.90
2019-02-24T12:19:29.802Z,29.20
2019-02-24T12:23:35.587Z,28.70
2019-02-24T12:27:41.307Z,26.60
2019-02-24T12:31:47.033Z,27.20
2019-02-24T12:35:52.746Z,28.70
2019-02-24T12:39:58.531Z,28.30
2019-02-24T12:44:04.267Z,26.10
2019-02-24T12:48:09.967Z,29.50
2019-02-24T12:52:15.706Z,28.40
2019-02-24T12:56:21.471Z,24.90
2019-02-24T13:00:29.185Z,23.90
2019-02-24T13:04:34.982Z,25.30
2019-02-24T13:08:40.665Z,24.40
2019-02-24T13:12:46.423Z,27.10
2019-02-24T13:16:52.174Z,28.40
2019-02-24T13:20:58.023Z,26.70
2019-02-24T13:25:10.000Z,27.00
2019-02-24T13:30:16.211Z,28.60
2019-02-24T13:34:21.958Z,29.30
2019-02-24T13:38:27.683Z,22.90
2019-02-24T13:42:33.489Z,20.20
2019-02-24T13:46:39.201Z,19.60
2019-02-24T13:50:44.985Z,18.60
2019-02-24T13:55:17.573Z,19.70
2019-02-24T13:59:23.286Z,23.30
2019-02-24T14:03:29.039Z,25.50
2019-02-24T14:07:34.731Z,28.50
2019-02-24T14:11:42.207Z,31.70
2019-02-24T14:15:47.927Z,27.20
2019-02-24T14:19:53.641Z,22.30
2019-02-24T14:23:59.346Z,20.40
2019-02-24T14:28:05.123Z,19.50
2019-02-24T14:32:10.820Z,18.50
2019-02-24T14:36:19.350Z,18.00
2019-02-24T14:40:25.045Z,17.60
2019-02-24T14:44:30.753Z,17.40
2019-02-24T14:48:36.480Z,17.30
2019-02-24T14:52:42.177Z,17.20
2019-02-24T14:56:47.864Z,17.10
2019-02-24T15:00:53.581Z,17.00
2019-02-24T15:04:59.351Z,17.00
2019-02-24T15:09:20.341Z,16.90
2019-02-24T15:13:26.032Z,16.80
2019-02-24T15:17:31.734Z,16.80
2019-02-24T15:21:37.467Z,16.70
2019-02-24T15:25:43.164Z,16.70
2019-02-24T15:29:48.864Z,16.60
2019-02-24T15:33:54.559Z,16.60
2019-02-24T15:38:00.370Z,16.60
2019-02-24T15:42:07.719Z,16.40
2019-02-24T15:46:32.214Z,16.40
2019-02-24T15:50:37.910Z,16.30
2019-02-24T15:54:43.595Z,16.20
2019-02-24T15:58:49.330Z,16.10
2019-02-24T16:03:01.655Z,16.00
2019-02-24T16:07:04.141Z,15.90
2019-02-24T16:11:09.946Z,15.90
2019-02-24T16:15:19.798Z,15.80
2019-02-24T16:19:25.573Z,15.80
2019-02-24T16:23:31.267Z,15.70
2019-02-24T16:27:37.110Z,15.60
2019-02-24T16:31:42.816Z,15.50
2019-02-24T16:35:48.495Z,15.40
2019-02-24T16:39:54.184Z,15.20
2019-02-24T16:43:59.991Z,15.00
2019-02-24T16:48:05.759Z,14.80
2019-02-24T16:52:11.483Z,14.60
2019-02-24T16:56:17.188Z,14.40
2019-02-24T17:00:27.587Z,14.40
2019-02-24T17:04:33.308Z,14.30
2019-02-24T17:08:39.033Z,14.10
2019-02-24T17:12:44.736Z,14.10
2019-02-24T17:17:01.392Z,14.00
2019-02-24T17:21:03.543Z,13.90
2019-02-24T17:25:10.790Z,13.80
2019-02-24T17:29:18.829Z,13.80
2019-02-24T17:33:30.108Z,13.90
2019-02-24T17:55:16.510Z,13.80
2019-02-24T18:10:19.668Z,13.70
2019-02-24T18:36:00.729Z,13.20
2019-02-24T18:40:19.456Z,13.20
2019-02-24T18:44:25.192Z,13.10
2019-02-24T18:48:30.895Z,13.10
2019-02-24T18:52:36.746Z,13.00
2019-02-24T18:56:42.583Z,12.90
2019-02-24T19:00:48.422Z,12.80
2019-02-24T19:04:54.223Z,12.90
2019-02-24T19:09:00.041Z,13.00
2019-02-24T19:13:14.695Z,12.90
2019-02-24T19:17:20.386Z,12.80
2019-02-24T19:21:26.173Z,12.70
2019-02-24T19:25:33.426Z,12.60
2019-02-24T19:29:39.181Z,12.60
2019-02-24T19:33:44.924Z,12.60
2019-02-24T19:38:17.508Z,12.60
2019-02-24T19:42:23.292Z,12.50
2019-02-24T19:46:29.028Z,12.30
2019-02-24T19:50:34.744Z,12.30
2019-02-24T19:54:40.474Z,12.20
2019-02-24T19:58:47.596Z,12.20
2019-02-24T20:02:53.835Z,12.30
2019-02-24T20:06:59.568Z,12.30
2019-02-24T20:11:14.307Z,12.20
2019-02-24T20:15:25.957Z,12.10
2019-02-24T20:19:31.649Z,12.10
2019-02-24T20:23:37.439Z,12.10
2019-02-24T20:27:43.214Z,12.10
2019-02-24T20:31:49.997Z,12.00
2019-02-24T20:35:55.727Z,12.10
2019-02-24T20:40:01.541Z,12.10
2019-02-24T20:44:16.384Z,12.00
2019-02-24T20:48:22.118Z,11.80
2019-02-24T20:52:27.835Z,11.80
2019-02-24T20:56:33.603Z,11.90
2019-02-24T21:00:52.435Z,11.80
2019-02-24T21:05:00.237Z,11.90
2019-02-24T21:09:17.324Z,11.90
2019-02-24T21:13:23.103Z,11.70
2019-02-24T21:17:28.826Z,11.50
2019-02-24T21:21:34.516Z,11.20
2019-02-24T21:25:40.293Z,10.60
2019-02-24T21:29:45.992Z,9.60
2019-02-24T21:33:51.696Z,9.10
2019-02-24T21:38:18.435Z,8.80
2019-02-24T21:42:24.127Z,8.70
2019-02-24T21:46:29.832Z,8.60
2019-02-24T21:50:35.528Z,8.50
2019-02-24T22:01:01.134Z,8.20
2019-02-24T22:06:16.459Z,8.90
2019-02-24T22:10:22.239Z,10.00
2019-02-24T22:21:15.718Z,10.50
2019-02-24T22:25:21.491Z,10.40
2019-02-24T22:33:43.690Z,8.80
2019-02-24T22:37:49.514Z,9.10
2019-02-24T22:41:55.667Z,9.70
2019-02-24T22:46:01.412Z,10.50
2019-02-24T22:50:10.239Z,11.00
2019-02-24T22:54:15.945Z,9.80
2019-02-24T22:58:21.648Z,8.70
2019-02-24T23:02:27.780Z,8.90
2019-02-24T23:06:33.703Z,8.40
2019-02-24T23:10:39.464Z,8.20
2019-02-24T23:14:47.283Z,8.00
2019-02-24T23:18:52.976Z,7.80
2019-02-24T23:22:58.727Z,7.90
2019-02-24T23:27:04.396Z,7.80
2019-02-24T23:31:10.165Z,7.60
2019-02-24T23:35:15.999Z,7.60
2019-02-24T23:39:21.684Z,8.10
2019-02-24T23:43:30.643Z,8.50
2019-02-24T23:47:36.506Z,8.40
2019-02-24T23:51:42.138Z,8.20
2019-02-24T23:55:47.826Z,7.60
2019-02-24T23:59:53.537Z,7.20
